Window Rock, AZ

7:02 PM MDT on September 19, 2014 (GMT -0600)
Window Rock | Change Station
CLOSE
Current Station
Airport
Location: Window Rock,
Elevation: 6742 ft
Nearby Weather Stations

Elev 6742 ft 35.66 °N, 109.06 °W | Updated 9 minutes ago

Scattered Clouds
Scattered Clouds
74 °F
Feels Like 74 °F
N
6
Wind Variable Wind from NW

Today
High -- | Low -- °F
--% Chance of Precip.
Yesterday
High -- | Low -- °F
Precip. -- in
7:02 AM 7:17 PM
Waning Crescent, 16% visible
Pressure 29.84 in
Visibility 10.0 miles
Clouds Scattered Clouds 10000 ft
Dew Point 46 °F
Humidity 37%
Rainfall 0.00 in
Snow Depth 0 in , 1 in , 0 in
UV 0 out of 12
Pollen 6.30 out of 12
Air Quality Not available.
Flu Activity Not available.
METAR KRQE 200053Z AUTO 31005KT 10SM SCT100 23/08 A3013 RMK AO2 SLP104 T02330078 TSNO

More Conditions Fewer Conditions

Pressure 29.84 in
Visibility 10.0 miles
Clouds Scattered Clouds 10000 ft
Dew Point 46 °F
Humidity 37%
Rainfall 0.00 in
Snow Depth 0 in , 1 in , 0 in
UV 0 out of 12
Pollen 6.30 out of 12
Air Quality Not available.
Flu Activity Not available.
METAR KRQE 200053Z AUTO 31005KT 10SM SCT100 23/08 A3013 RMK AO2 SLP104 T02330078 TSNO

More Conditions Fewer Conditions

10-Day Weather Forecast

Almanac

Astronomy

Sep. 19, 2014 Rise Set
Actual Time 7:02 AM MDT 7:17 PM MDT
Civil Twilight 6:36 AM MDT 7:43 PM MDT
Nautical Twilight 6:06 AM MDT 8:12 PM MDT
Astronomical Twilight 5:36 AM MDT 8:43 PM MDT
Moon 2:57 AM MDT (9/19) 4:42 PM MDT (9/19)
Length of Visible Light 13h 06m
Length of Day
12h 15m
Tomorrow will be 2m 13s shorter.
Waning Crescent, 16% of the Moon is Illuminated
Today
Waning Crescent
Sep 24
New
Oct 1
First Quarter
Oct 8
Full
Oct 15
Last Quarter

Today's Extremes

State Highs State Lows

Community

WunderPhotos

Upload Photos

1,754,756 photos uploaded!

WunderBlogs® & News

Nearby

Snow Depth

Station Depth Elevation
Snowslide Canyon 0 in 9730 ft
Workman Creek 1 in 6900 ft
White Horse Lake 0 in 7180 ft
Beaver Head 1 in 7990 ft

Earthquake Activity

City Distance Mag. Time & Date
No recent earthquake activity has been reported nearby.
Minimum magnitude displayed is 2.5.

Coastal Water Temperatures

Place Temperature
No Stations Reporting

Nearby Weather Stations